sensor_id;sensor_type;location;lat;lon;timestamp;temperature;humidity
6930;DHT22;3504;52.616;13.238;2022-10-31T00:00:17;10.91;82.04
6930;DHT22;3504;52.616;13.238;2022-10-31T00:05:17;10.85;82.11
6930;DHT22;3504;52.616;13.238;2022-10-31T00:10:18;10.76;82.27
6930;DHT22;3504;52.616;13.238;2022-10-31T00:15:18;10.76;82.75
6930;DHT22;3504;52.616;13.238;2022-10-31T00:20:19;10.72;82.54
6930;DHT22;3504;52.616;13.238;2022-10-31T00:25:19;10.69;82.37
6930;DHT22;3504;52.616;13.238;2022-10-31T00:30:21;10.68;82.36
6930;DHT22;3504;52.616;13.238;2022-10-31T00:35:21;10.63;82.25
6930;DHT22;3504;52.616;13.238;2022-10-31T00:40:22;10.55;82.66
6930;DHT22;3504;52.616;13.238;2022-10-31T00:45:22;10.51;82.57
6930;DHT22;3504;52.616;13.238;2022-10-31T00:50:23;10.49;82.60
6930;DHT22;3504;52.616;13.238;2022-10-31T00:55:24;10.46;82.64
6930;DHT22;3504;52.616;13.238;2022-10-31T01:00:26;10.44;82.48
6930;DHT22;3504;52.616;13.238;2022-10-31T01:05:26;10.40;82.56
6930;DHT22;3504;52.616;13.238;2022-10-31T01:10:27;10.40;82.63
6930;DHT22;3504;52.616;13.238;2022-10-31T01:15:27;10.34;82.46
6930;DHT22;3504;52.616;13.238;2022-10-31T01:20:28;10.31;82.40
6930;DHT22;3504;52.616;13.238;2022-10-31T01:25:28;10.27;82.76
6930;DHT22;3504;52.616;13.238;2022-10-31T01:30:29;10.21;82.82
6930;DHT22;3504;52.616;13.238;2022-10-31T01:35:29;10.18;82.71
6930;DHT22;3504;52.616;13.238;2022-10-31T01:40:30;10.18;82.67
6930;DHT22;3504;52.616;13.238;2022-10-31T01:45:31;10.17;82.83
6930;DHT22;3504;52.616;13.238;2022-10-31T01:50:35;10.14;82.64
6930;DHT22;3504;52.616;13.238;2022-10-31T01:55:41;10.09;82.86
6930;DHT22;3504;52.616;13.238;2022-10-31T02:00:45;10.06;82.76
6930;DHT22;3504;52.616;13.238;2022-10-31T02:05:47;10.00;83.37
6930;DHT22;3504;52.616;13.238;2022-10-31T02:10:48;9.96;83.37
6930;DHT22;3504;52.616;13.238;2022-10-31T02:15:55;9.93;83.27
6930;DHT22;3504;52.616;13.238;2022-10-31T02:21:19;9.92;83.37
6930;DHT22;3504;52.616;13.238;2022-10-31T02:32:25;9.89;83.20
6930;DHT22;3504;52.616;13.238;2022-10-31T02:37:55;9.83;83.18
6930;DHT22;3504;52.616;13.238;2022-10-31T02:43:28;9.78;83.14
6930;DHT22;3504;52.616;13.238;2022-10-31T02:48:33;9.78;83.14
6930;DHT22;3504;52.616;13.238;2022-10-31T02:53:37;9.74;83.07
6930;DHT22;3504;52.616;13.238;2022-10-31T02:58:54;9.69;83.24
6930;DHT22;3504;52.616;13.238;2022-10-31T03:04:13;9.69;83.19
6930;DHT22;3504;52.616;13.238;2022-10-31T03:09:33;9.66;83.10
6930;DHT22;3504;52.616;13.238;2022-10-31T03:14:43;9.62;83.05
6930;DHT22;3504;52.616;13.238;2022-10-31T03:19:48;9.61;83.25
6930;DHT22;3504;52.616;13.238;2022-10-31T03:24:50;9.58;83.17
6930;DHT22;3504;52.616;13.238;2022-10-31T03:29:57;9.56;83.49
6930;DHT22;3504;52.616;13.238;2022-10-31T03:35:05;9.52;83.38
6930;DHT22;3504;52.616;13.238;2022-10-31T03:40:08;9.52;83.45
6930;DHT22;3504;52.616;13.238;2022-10-31T03:45:18;9.48;83.62
6930;DHT22;3504;52.616;13.238;2022-10-31T03:50:22;9.46;83.31
6930;DHT22;3504;52.616;13.238;2022-10-31T03:55:50;9.39;83.97
6930;DHT22;3504;52.616;13.238;2022-10-31T04:00:54;9.41;83.78
6930;DHT22;3504;52.616;13.238;2022-10-31T04:06:02;9.38;83.88
6930;DHT22;3504;52.616;13.238;2022-10-31T04:11:04;9.38;83.83
6930;DHT22;3504;52.616;13.238;2022-10-31T04:16:08;9.39;83.71
6930;DHT22;3504;52.616;13.238;2022-10-31T04:21:09;9.36;83.49
6930;DHT22;3504;52.616;13.238;2022-10-31T04:26:12;9.34;83.61
6930;DHT22;3504;52.616;13.238;2022-10-31T04:31:13;9.34;83.64
6930;DHT22;3504;52.616;13.238;2022-10-31T04:36:15;9.28;83.68
6930;DHT22;3504;52.616;13.238;2022-10-31T04:41:16;9.28;83.62
6930;DHT22;3504;52.616;13.238;2022-10-31T04:46:35;9.27;83.81
6930;DHT22;3504;52.616;13.238;2022-10-31T04:51:35;9.24;83.69
6930;DHT22;3504;52.616;13.238;2022-10-31T04:56:36;9.24;83.75
6930;DHT22;3504;52.616;13.238;2022-10-31T05:01:44;9.21;84.10
6930;DHT22;3504;52.616;13.238;2022-10-31T05:06:45;9.17;84.07
6930;DHT22;3504;52.616;13.238;2022-10-31T05:11:46;9.15;84.00
6930;DHT22;3504;52.616;13.238;2022-10-31T05:17:12;9.12;84.01
6930;DHT22;3504;52.616;13.238;2022-10-31T05:22:31;9.11;83.99
6930;DHT22;3504;52.616;13.238;2022-10-31T05:27:31;9.11;84.06
6930;DHT22;3504;52.616;13.238;2022-10-31T05:32:43;9.10;84.04
6930;DHT22;3504;52.616;13.238;2022-10-31T05:38:13;9.10;84.05
6930;DHT22;3504;52.616;13.238;2022-10-31T05:43:14;9.10;84.35
6930;DHT22;3504;52.616;13.238;2022-10-31T05:48:16;9.10;84.35
6930;DHT22;3504;52.616;13.238;2022-10-31T05:53:39;9.11;84.54
6930;DHT22;3504;52.616;13.238;2022-10-31T05:58:40;9.11;84.63
6930;DHT22;3504;52.616;13.238;2022-10-31T06:03:41;9.11;84.68
6930;DHT22;3504;52.616;13.238;2022-10-31T06:08:43;9.14;84.73
6930;DHT22;3504;52.616;13.238;2022-10-31T06:13:56;9.18;84.71
6930;DHT22;3504;52.616;13.238;2022-10-31T06:19:07;9.22;84.69
6930;DHT22;3504;52.616;13.238;2022-10-31T06:24:09;9.25;84.65
6930;DHT22;3504;52.616;13.238;2022-10-31T06:29:34;9.30;84.65
6930;DHT22;3504;52.616;13.238;2022-10-31T06:34:45;9.39;84.63
6930;DHT22;3504;52.616;13.238;2022-10-31T06:39:48;9.45;84.98
6930;DHT22;3504;52.616;13.238;2022-10-31T06:44:50;9.56;85.06
6930;DHT22;3504;52.616;13.238;2022-10-31T06:50:21;9.63;85.23
6930;DHT22;3504;52.616;13.238;2022-10-31T06:55:22;9.78;85.33
6930;DHT22;3504;52.616;13.238;2022-10-31T07:00:25;9.93;85.82
6930;DHT22;3504;52.616;13.238;2022-10-31T07:05:33;10.14;86.41
6930;DHT22;3504;52.616;13.238;2022-10-31T07:10:38;10.33;87.48
6930;DHT22;3504;52.616;13.238;2022-10-31T07:15:41;10.49;87.46
6930;DHT22;3504;52.616;13.238;2022-10-31T07:20:42;10.69;87.28
6930;DHT22;3504;52.616;13.238;2022-10-31T07:25:44;10.86;87.34
6930;DHT22;3504;52.616;13.238;2022-10-31T07:30:57;11.05;88.39
6930;DHT22;3504;52.616;13.238;2022-10-31T07:35:59;11.22;88.14
6930;DHT22;3504;52.616;13.238;2022-10-31T07:41:04;11.40;88.26
6930;DHT22;3504;52.616;13.238;2022-10-31T07:46:07;11.48;88.38
6930;DHT22;3504;52.616;13.238;2022-10-31T07:51:16;11.56;88.50
6930;DHT22;3504;52.616;13.238;2022-10-31T07:56:37;11.63;88.33
6930;DHT22;3504;52.616;13.238;2022-10-31T08:01:37;11.63;88.01
6930;DHT22;3504;52.616;13.238;2022-10-31T08:06:56;11.73;88.40
6930;DHT22;3504;52.616;13.238;2022-10-31T08:12:05;11.77;88.22
6930;DHT22;3504;52.616;13.238;2022-10-31T08:17:08;11.84;88.01
6930;DHT22;3504;52.616;13.238;2022-10-31T08:22:17;11.92;88.36
6930;DHT22;3504;52.616;13.238;2022-10-31T08:27:18;11.98;89.01
6930;DHT22;3504;52.616;13.238;2022-10-31T08:32:19;12.04;88.84
6930;DHT22;3504;52.616;13.238;2022-10-31T08:37:31;12.14;88.79
6930;DHT22;3504;52.616;13.238;2022-10-31T08:42:32;12.40;88.28
6930;DHT22;3504;52.616;13.238;2022-10-31T08:47:33;12.70;88.58
6930;DHT22;3504;52.616;13.238;2022-10-31T08:52:33;12.91;88.27
6930;DHT22;3504;52.616;13.238;2022-10-31T08:57:36;13.11;88.30
6930;DHT22;3504;52.616;13.238;2022-10-31T09:02:37;13.34;87.63
6930;DHT22;3504;52.616;13.238;2022-10-31T09:07:38;13.49;87.26
6930;DHT22;3504;52.616;13.238;2022-10-31T09:12:39;13.69;86.84
6930;DHT22;3504;52.616;13.238;2022-10-31T09:18:02;13.93;86.63
6930;DHT22;3504;52.616;13.238;2022-10-31T09:23:13;14.18;86.29
6930;DHT22;3504;52.616;13.238;2022-10-31T09:28:17;14.41;85.49
6930;DHT22;3504;52.616;13.238;2022-10-31T09:33:23;14.47;84.86
6930;DHT22;3504;52.616;13.238;2022-10-31T09:38:41;14.60;84.94
6930;DHT22;3504;52.616;13.238;2022-10-31T09:43:58;14.88;84.13
6930;DHT22;3504;52.616;13.238;2022-10-31T09:54:45;15.12;83.16
6930;DHT22;3504;52.616;13.238;2022-10-31T09:59:47;15.22;83.62
6930;DHT22;3504;52.616;13.238;2022-10-31T10:04:57;15.35;83.42
6930;DHT22;3504;52.616;13.238;2022-10-31T10:11:25;15.70;82.83
6930;DHT22;3504;52.616;13.238;2022-10-31T10:22:22;16.14;81.58
6930;DHT22;3504;52.616;13.238;2022-10-31T10:27:52;16.29;80.93
6930;DHT22;3504;52.616;13.238;2022-10-31T10:32:59;16.43;81.12
6930;DHT22;3504;52.616;13.238;2022-10-31T10:38:42;16.56;80.74
6930;DHT22;3504;52.616;13.238;2022-10-31T10:43:45;16.66;80.37
6930;DHT22;3504;52.616;13.238;2022-10-31T10:49:18;16.76;80.08
6930;DHT22;3504;52.616;13.238;2022-10-31T10:54:42;16.93;79.89
6930;DHT22;3504;52.616;13.238;2022-10-31T10:59:45;17.03;79.17
6930;DHT22;3504;52.616;13.238;2022-10-31T11:04:55;17.04;79.60
6930;DHT22;3504;52.616;13.238;2022-10-31T11:10:05;17.06;79.41
6930;DHT22;3504;52.616;13.238;2022-10-31T11:15:23;17.23;79.46
6930;DHT22;3504;52.616;13.238;2022-10-31T11:20:35;17.25;79.07
6930;DHT22;3504;52.616;13.238;2022-10-31T11:25:36;17.35;79.12
6930;DHT22;3504;52.616;13.238;2022-10-31T11:30:50;17.44;79.09
6930;DHT22;3504;52.616;13.238;2022-10-31T11:35:52;17.41;79.01
6930;DHT22;3504;52.616;13.238;2022-10-31T11:41:19;17.49;79.38
6930;DHT22;3504;52.616;13.238;2022-10-31T11:46:34;17.55;79.18
6930;DHT22;3504;52.616;13.238;2022-10-31T11:51:37;17.56;79.45
6930;DHT22;3504;52.616;13.238;2022-10-31T11:56:40;17.58;79.12
6930;DHT22;3504;52.616;13.238;2022-10-31T12:01:48;17.46;79.36
6930;DHT22;3504;52.616;13.238;2022-10-31T12:06:50;17.41;79.63
6930;DHT22;3504;52.616;13.238;2022-10-31T12:12:39;17.28;79.96
6930;DHT22;3504;52.616;13.238;2022-10-31T12:18:17;17.21;80.16
6930;DHT22;3504;52.616;13.238;2022-10-31T12:23:56;17.08;79.86
6930;DHT22;3504;52.616;13.238;2022-10-31T12:29:26;16.72;80.94
6930;DHT22;3504;52.616;13.238;2022-10-31T12:35:23;16.56;81.36
6930;DHT22;3504;52.616;13.238;2022-10-31T12:41:09;16.38;81.93
6930;DHT22;3504;52.616;13.238;2022-10-31T12:57:33;16.21;82.68
6930;DHT22;3504;52.616;13.238;2022-10-31T13:08:26;16.18;83.09
6930;DHT22;3504;52.616;13.238;2022-10-31T13:13:59;16.18;83.14
6930;DHT22;3504;52.616;13.238;2022-10-31T13:19:28;16.11;83.39
6930;DHT22;3504;52.616;13.238;2022-10-31T13:24:39;16.02;83.59
6930;DHT22;3504;52.616;13.238;2022-10-31T13:30:12;15.91;83.81
6930;DHT22;3504;52.616;13.238;2022-10-31T13:40:38;15.51;84.94
6930;DHT22;3504;52.616;13.238;2022-10-31T13:45:54;15.47;85.27
6930;DHT22;3504;52.616;13.238;2022-10-31T13:50:59;15.42;85.45
6930;DHT22;3504;52.616;13.238;2022-10-31T14:01:18;15.40;85.50
6930;DHT22;3504;52.616;13.238;2022-10-31T14:06:19;15.39;85.45
6930;DHT22;3504;52.616;13.238;2022-10-31T14:11:26;15.35;85.71
6930;DHT22;3504;52.616;13.238;2022-10-31T14:16:30;15.35;85.68
6930;DHT22;3504;52.616;13.238;2022-10-31T14:21:39;15.24;85.90
6930;DHT22;3504;52.616;13.238;2022-10-31T14:32:06;15.12;86.42
6930;DHT22;3504;52.616;13.238;2022-10-31T14:37:25;15.05;86.55
6930;DHT22;3504;52.616;13.238;2022-10-31T14:53:52;14.98;86.79
6930;DHT22;3504;52.616;13.238;2022-10-31T14:59:06;14.93;86.98
6930;DHT22;3504;52.616;13.238;2022-10-31T15:04:24;14.89;87.16
6930;DHT22;3504;52.616;13.238;2022-10-31T15:09:31;14.85;87.27
6930;DHT22;3504;52.616;13.238;2022-10-31T15:14:31;14.85;87.26
6930;DHT22;3504;52.616;13.238;2022-10-31T15:19:34;14.75;87.84
6930;DHT22;3504;52.616;13.238;2022-10-31T15:24:37;14.71;88.12
6930;DHT22;3504;52.616;13.238;2022-10-31T15:29:52;14.67;88.04
6930;DHT22;3504;52.616;13.238;2022-10-31T15:34:54;14.63;88.26
6930;DHT22;3504;52.616;13.238;2022-10-31T15:40:11;14.60;88.34
6930;DHT22;3504;52.616;13.238;2022-10-31T15:50:29;14.47;88.86
6930;DHT22;3504;52.616;13.238;2022-10-31T15:55:36;14.41;88.53
6930;DHT22;3504;52.616;13.238;2022-10-31T16:00:38;14.31;88.71
6930;DHT22;3504;52.616;13.238;2022-10-31T16:05:58;14.21;88.78
6930;DHT22;3504;52.616;13.238;2022-10-31T16:10:59;14.13;89.22
6930;DHT22;3504;52.616;13.238;2022-10-31T16:16:11;14.09;89.05
6930;DHT22;3504;52.616;13.238;2022-10-31T16:21:13;14.03;89.11
6930;DHT22;3504;52.616;13.238;2022-10-31T16:26:17;14.07;89.01
6930;DHT22;3504;52.616;13.238;2022-10-31T16:31:29;14.04;88.96
6930;DHT22;3504;52.616;13.238;2022-10-31T16:36:33;14.04;89.19
6930;DHT22;3504;52.616;13.238;2022-10-31T16:41:42;14.07;88.89
6930;DHT22;3504;52.616;13.238;2022-10-31T16:46:43;14.06;89.08
6930;DHT22;3504;52.616;13.238;2022-10-31T16:51:44;14.04;89.06
6930;DHT22;3504;52.616;13.238;2022-10-31T16:56:44;14.07;89.14
6930;DHT22;3504;52.616;13.238;2022-10-31T17:01:48;14.04;89.24
6930;DHT22;3504;52.616;13.238;2022-10-31T17:06:48;13.99;89.38
6930;DHT22;3504;52.616;13.238;2022-10-31T17:11:51;13.99;89.29
6930;DHT22;3504;52.616;13.238;2022-10-31T17:16:52;13.95;89.39
6930;DHT22;3504;52.616;13.238;2022-10-31T17:21:53;13.90;89.51
6930;DHT22;3504;52.616;13.238;2022-10-31T17:26:54;13.90;89.50
6930;DHT22;3504;52.616;13.238;2022-10-31T17:31:54;13.95;89.59
6930;DHT22;3504;52.616;13.238;2022-10-31T17:36:55;13.95;89.54
6930;DHT22;3504;52.616;13.238;2022-10-31T17:41:55;13.92;89.68
6930;DHT22;3504;52.616;13.238;2022-10-31T17:46:56;13.85;90.04
6930;DHT22;3504;52.616;13.238;2022-10-31T17:51:56;13.85;90.11
6930;DHT22;3504;52.616;13.238;2022-10-31T17:56:57;13.85;90.00
6930;DHT22;3504;52.616;13.238;2022-10-31T18:01:57;13.87;89.86
6930;DHT22;3504;52.616;13.238;2022-10-31T18:06:59;13.87;89.87
6930;DHT22;3504;52.616;13.238;2022-10-31T18:12:00;13.87;89.71
6930;DHT22;3504;52.616;13.238;2022-10-31T18:17:00;13.81;89.78
6930;DHT22;3504;52.616;13.238;2022-10-31T18:22:01;13.78;89.90
6930;DHT22;3504;52.616;13.238;2022-10-31T18:27:01;13.78;89.90
6930;DHT22;3504;52.616;13.238;2022-10-31T18:32:02;13.76;90.06
6930;DHT22;3504;52.616;13.238;2022-10-31T18:37:03;13.73;90.10
6930;DHT22;3504;52.616;13.238;2022-10-31T18:42:03;13.75;90.20
6930;DHT22;3504;52.616;13.238;2022-10-31T18:47:04;13.69;90.43
6930;DHT22;3504;52.616;13.238;2022-10-31T18:52:04;13.75;90.23
6930;DHT22;3504;52.616;13.238;2022-10-31T18:57:05;13.79;90.30
6930;DHT22;3504;52.616;13.238;2022-10-31T19:02:05;13.79;90.02
6930;DHT22;3504;52.616;13.238;2022-10-31T19:07:06;13.82;90.04
6930;DHT22;3504;52.616;13.238;2022-10-31T19:12:06;13.82;89.90
6930;DHT22;3504;52.616;13.238;2022-10-31T19:17:07;13.81;89.91
6930;DHT22;3504;52.616;13.238;2022-10-31T19:22:07;13.81;90.14
6930;DHT22;3504;52.616;13.238;2022-10-31T19:27:09;13.82;90.04
6930;DHT22;3504;52.616;13.238;2022-10-31T19:32:10;13.83;89.92
6930;DHT22;3504;52.616;13.238;2022-10-31T19:37:10;13.90;89.84
6930;DHT22;3504;52.616;13.238;2022-10-31T19:42:11;13.92;89.69
6930;DHT22;3504;52.616;13.238;2022-10-31T19:47:11;13.90;89.60
6930;DHT22;3504;52.616;13.238;2022-10-31T19:52:12;13.86;89.72
6930;DHT22;3504;52.616;13.238;2022-10-31T19:57:12;13.83;89.97
6930;DHT22;3504;52.616;13.238;2022-10-31T20:02:13;13.83;90.14
6930;DHT22;3504;52.616;13.238;2022-10-31T20:07:18;13.82;90.13
6930;DHT22;3504;52.616;13.238;2022-10-31T20:12:19;13.81;90.04
6930;DHT22;3504;52.616;13.238;2022-10-31T20:17:19;13.82;90.29
6930;DHT22;3504;52.616;13.238;2022-10-31T20:22:20;13.85;90.03
6930;DHT22;3504;52.616;13.238;2022-10-31T20:27:20;13.85;90.15
6930;DHT22;3504;52.616;13.238;2022-10-31T20:32:21;13.86;90.20
6930;DHT22;3504;52.616;13.238;2022-10-31T20:37:21;13.87;90.28
6930;DHT22;3504;52.616;13.238;2022-10-31T20:42:22;13.87;90.06
6930;DHT22;3504;52.616;13.238;2022-10-31T20:47:23;13.89;90.17
6930;DHT22;3504;52.616;13.238;2022-10-31T20:52:23;13.90;90.10
6930;DHT22;3504;52.616;13.238;2022-10-31T20:57:24;13.92;90.21
6930;DHT22;3504;52.616;13.238;2022-10-31T21:02:24;13.89;90.15
6930;DHT22;3504;52.616;13.238;2022-10-31T21:07:25;13.90;90.33
6930;DHT22;3504;52.616;13.238;2022-10-31T21:12:25;13.89;90.26
6930;DHT22;3504;52.616;13.238;2022-10-31T21:17:27;13.92;90.32
6930;DHT22;3504;52.616;13.238;2022-10-31T21:22:27;13.92;90.38
6930;DHT22;3504;52.616;13.238;2022-10-31T21:27:28;13.92;90.41
6930;DHT22;3504;52.616;13.238;2022-10-31T21:32:30;13.93;90.57
6930;DHT22;3504;52.616;13.238;2022-10-31T21:37:30;13.89;90.92
6930;DHT22;3504;52.616;13.238;2022-10-31T21:42:31;13.89;90.85
6930;DHT22;3504;52.616;13.238;2022-10-31T21:47:34;13.86;91.03
6930;DHT22;3504;52.616;13.238;2022-10-31T21:52:35;13.86;91.11
6930;DHT22;3504;52.616;13.238;2022-10-31T21:57:35;13.87;91.05
6930;DHT22;3504;52.616;13.238;2022-10-31T22:02:36;13.85;91.13
6930;DHT22;3504;52.616;13.238;2022-10-31T22:07:36;13.82;91.22
6930;DHT22;3504;52.616;13.238;2022-10-31T22:12:37;13.78;91.69
6930;DHT22;3504;52.616;13.238;2022-10-31T22:17:38;13.76;91.58
6930;DHT22;3504;52.616;13.238;2022-10-31T22:22:38;13.83;91.21
6930;DHT22;3504;52.616;13.238;2022-10-31T22:27:39;13.83;91.28
6930;DHT22;3504;52.616;13.238;2022-10-31T22:32:41;13.85;91.25
6930;DHT22;3504;52.616;13.238;2022-10-31T22:37:41;13.85;91.24
6930;DHT22;3504;52.616;13.238;2022-10-31T22:42:42;13.85;91.17
6930;DHT22;3504;52.616;13.238;2022-10-31T22:47:42;13.83;91.20
6930;DHT22;3504;52.616;13.238;2022-10-31T22:52:43;13.86;91.27
6930;DHT22;3504;52.616;13.238;2022-10-31T22:57:43;13.85;91.23
6930;DHT22;3504;52.616;13.238;2022-10-31T23:02:44;13.86;91.34
6930;DHT22;3504;52.616;13.238;2022-10-31T23:07:44;13.83;91.43
6930;DHT22;3504;52.616;13.238;2022-10-31T23:12:45;13.83;91.51
6930;DHT22;3504;52.616;13.238;2022-10-31T23:18:04;13.78;91.90
6930;DHT22;3504;52.616;13.238;2022-10-31T23:23:04;13.78;91.93
6930;DHT22;3504;52.616;13.238;2022-10-31T23:28:05;13.73;91.95
6930;DHT22;3504;52.616;13.238;2022-10-31T23:33:05;13.73;92.09
6930;DHT22;3504;52.616;13.238;2022-10-31T23:38:06;13.75;91.95
6930;DHT22;3504;52.616;13.238;2022-10-31T23:43:07;13.72;92.00
6930;DHT22;3504;52.616;13.238;2022-10-31T23:48:07;13.69;92.08
6930;DHT22;3504;52.616;13.238;2022-10-31T23:53:08;13.67;91.85
6930;DHT22;3504;52.616;13.238;2022-10-31T23:58:08;13.66;92.03
